« Back
NWS Peachtree City, Ga » Text Product » CSG Terminal Aerodrome Forecast


Printer-friendly Version
Current Version              Previous Versions:   1  2  3  4  5  6  7  8  9  

Terminal Aerodrome Forecast

775
FTUS42 KFFC 292300
TAFCSG
TAF
KCSG 292327Z 3000/3024 34008KT P6SM FEW060
     FM300100 34004KT P6SM SKC
     FM301300 36004KT P6SM FEW030
     FM301800 33005KT P6SM FEW050=



USA.gov is the U.S. government's official web portal to all federal, state and local government web resources and services.